createdAt,value
2023-04-18T00:01:07.878Z,5.53
2023-04-18T00:03:34.762Z,5.07
2023-04-18T00:06:02.171Z,5.23
2023-04-18T00:08:28.788Z,5.20
2023-04-18T00:10:55.184Z,5.83
2023-04-18T00:13:21.524Z,6.03
2023-04-18T00:15:47.999Z,5.90
2023-04-18T00:18:17.115Z,5.50
2023-04-18T00:20:43.602Z,5.97
2023-04-18T00:23:13.910Z,5.20
2023-04-18T00:25:41.019Z,6.43
2023-04-18T00:28:07.438Z,5.20
2023-04-18T00:30:33.815Z,5.77
2023-04-18T00:33:00.309Z,6.00
2023-04-18T00:35:26.802Z,5.97
2023-04-18T00:37:53.186Z,5.40
2023-04-18T00:40:19.636Z,5.90
2023-04-18T00:42:45.984Z,5.90
2023-04-18T00:45:12.354Z,5.70
2023-04-18T00:47:38.780Z,5.07
2023-04-18T00:50:05.957Z,5.90
2023-04-18T00:52:35.671Z,6.27
2023-04-18T00:55:07.690Z,6.20
2023-04-18T00:57:34.433Z,5.20
2023-04-18T01:00:02.176Z,6.57
2023-04-18T01:02:31.945Z,6.00
2023-04-18T01:04:58.582Z,6.00
2023-04-18T01:07:28.224Z,5.83
2023-04-18T01:09:54.556Z,6.80
2023-04-18T01:12:20.902Z,5.60
2023-04-18T01:14:47.293Z,7.27
2023-04-18T01:17:13.893Z,7.60
2023-04-18T01:19:40.584Z,6.07
2023-04-18T01:22:07.323Z,7.00
2023-04-18T01:24:33.726Z,5.90
2023-04-18T01:27:01.713Z,6.63
2023-04-18T01:29:28.147Z,7.10
2023-04-18T01:31:54.591Z,6.67
2023-04-18T01:34:21.136Z,7.33
2023-04-18T01:36:47.528Z,6.50
2023-04-18T01:39:14.552Z,6.67
2023-04-18T01:41:43.724Z,7.40
2023-04-18T01:44:10.420Z,7.20
2023-04-18T01:46:36.893Z,6.40
2023-04-18T01:49:03.448Z,7.13
2023-04-18T01:51:29.779Z,6.93
2023-04-18T01:53:56.119Z,7.60
2023-04-18T01:56:22.485Z,6.70
2023-04-18T01:58:48.855Z,7.90
2023-04-18T02:01:15.287Z,7.40
2023-04-18T02:03:41.784Z,8.13
2023-04-18T02:06:08.289Z,7.23
2023-04-18T02:11:02.634Z,7.70
2023-04-18T02:13:29.466Z,7.70
2023-04-18T02:15:55.858Z,8.40
2023-04-18T02:18:24.670Z,8.33
2023-04-18T02:20:51.811Z,8.20
2023-04-18T02:23:18.784Z,7.67
2023-04-18T02:25:45.165Z,9.47
2023-04-18T02:28:11.497Z,8.67
2023-04-18T02:30:37.882Z,8.10
2023-04-18T02:33:04.309Z,8.87
2023-04-18T02:35:31.653Z,8.50
2023-04-18T02:37:57.991Z,8.33
2023-04-18T02:40:24.375Z,8.20
2023-04-18T02:42:50.835Z,8.80
2023-04-18T02:45:17.295Z,8.47
2023-04-18T02:47:54.361Z,8.70
2023-04-18T02:50:22.421Z,9.47
2023-04-18T02:52:48.787Z,9.50
2023-04-18T02:55:15.152Z,8.50
2023-04-18T02:57:41.468Z,10.93
2023-04-18T03:00:08.720Z,9.37
2023-04-18T03:02:35.235Z,8.20
2023-04-18T03:05:01.766Z,8.23
2023-04-18T03:07:28.185Z,9.53
2023-04-18T03:09:54.562Z,9.53
2023-04-18T03:12:20.973Z,9.47
2023-04-18T03:14:47.329Z,9.50
2023-04-18T03:17:13.782Z,10.00
2023-04-18T03:19:40.152Z,9.70
2023-04-18T03:22:06.545Z,10.10
2023-04-18T03:24:32.857Z,10.30
2023-04-18T03:27:00.428Z,9.47
2023-04-18T03:29:26.804Z,9.53
2023-04-18T03:31:53.198Z,10.10
2023-04-18T03:34:19.610Z,10.17
2023-04-18T03:36:48.005Z,9.93
2023-04-18T03:39:14.752Z,9.43
2023-04-18T03:41:41.089Z,9.37
2023-04-18T03:44:07.511Z,9.80
2023-04-18T03:46:33.978Z,8.87
2023-04-18T03:49:00.726Z,9.53
2023-04-18T03:51:27.561Z,8.50
2023-04-18T03:53:53.923Z,9.60
2023-04-18T03:56:20.296Z,9.40
2023-04-18T03:58:46.614Z,9.33
2023-04-18T04:01:13.015Z,8.80
2023-04-18T04:03:39.674Z,9.70
2023-04-18T04:06:06.584Z,9.77
2023-04-18T04:08:32.916Z,9.00
2023-04-18T04:10:59.238Z,9.50
2023-04-18T04:13:25.630Z,9.90
2023-04-18T04:15:52.352Z,10.20
2023-04-18T04:18:18.696Z,9.43
2023-04-18T04:20:48.171Z,10.00
2023-04-18T04:23:14.492Z,9.40
2023-04-18T04:25:40.836Z,8.83
2023-04-18T04:28:08.042Z,9.67
2023-04-18T04:30:34.377Z,8.67
2023-04-18T04:33:01.668Z,9.50
2023-04-18T04:35:28.308Z,8.90
2023-04-18T04:37:54.645Z,9.97
2023-04-18T04:40:22.845Z,9.87
2023-04-18T04:42:53.857Z,8.90
2023-04-18T04:45:20.876Z,8.17
2023-04-18T04:47:47.532Z,9.57
2023-04-18T04:50:15.596Z,8.03
2023-04-18T04:52:42.491Z,9.37
2023-04-18T04:55:09.174Z,9.80
2023-04-18T04:57:35.782Z,9.53
2023-04-18T05:00:02.175Z,9.23
2023-04-18T05:02:28.666Z,9.00
2023-04-18T05:04:55.316Z,9.53
2023-04-18T05:07:21.820Z,9.87
2023-04-18T05:09:48.186Z,10.03
2023-04-18T05:12:14.524Z,9.57
2023-04-18T05:14:40.900Z,8.40
2023-04-18T05:17:07.711Z,9.27
2023-04-18T05:19:34.079Z,10.37
2023-04-18T05:22:00.543Z,10.20
2023-04-18T05:24:26.855Z,10.37
2023-04-18T05:26:53.565Z,10.77
2023-04-18T05:29:20.260Z,10.50
2023-04-18T05:31:46.615Z,11.20
2023-04-18T05:34:13.205Z,10.80
2023-04-18T05:36:40.151Z,11.10
2023-04-18T05:39:07.021Z,11.50
2023-04-18T05:41:33.880Z,11.80
2023-04-18T05:44:05.228Z,12.53
2023-04-18T05:46:32.849Z,12.77
2023-04-18T05:48:59.377Z,12.80
2023-04-18T05:51:26.657Z,12.90
2023-04-18T05:53:53.070Z,12.40
2023-04-18T05:56:19.460Z,14.27
2023-04-18T05:58:47.387Z,12.73
2023-04-18T06:01:18.425Z,13.30
2023-04-18T06:03:44.962Z,13.70
2023-04-18T06:06:11.621Z,14.97
2023-04-18T06:08:41.404Z,14.17
2023-04-18T06:11:08.914Z,15.13
2023-04-18T06:13:37.076Z,12.90
2023-04-18T06:16:03.855Z,14.97
2023-04-18T06:18:30.231Z,14.77
2023-04-18T06:20:56.602Z,15.07
2023-04-18T06:23:22.914Z,14.27
2023-04-18T06:25:49.327Z,14.63
2023-04-18T06:28:16.071Z,14.77
2023-04-18T06:30:42.448Z,14.80
2023-04-18T06:33:10.891Z,15.60
2023-04-18T06:35:37.555Z,16.10
2023-04-18T06:38:03.899Z,14.93
2023-04-18T06:40:30.278Z,13.13
2023-04-18T06:42:56.891Z,15.33
2023-04-18T06:45:23.256Z,15.90
2023-04-18T06:47:49.674Z,16.30
2023-04-18T06:50:17.024Z,16.37
2023-04-18T06:52:46.225Z,15.00
2023-04-18T06:55:13.903Z,16.10
2023-04-18T06:57:41.692Z,16.70
2023-04-18T07:00:09.002Z,15.63
2023-04-18T07:02:36.854Z,14.90
2023-04-18T07:05:03.504Z,15.93
2023-04-18T07:07:31.136Z,14.93
2023-04-18T07:09:57.474Z,15.13
2023-04-18T07:12:24.439Z,16.40
2023-04-18T07:14:51.616Z,16.70
2023-04-18T07:17:18.082Z,16.37
2023-04-18T07:19:44.515Z,15.93
2023-04-18T07:22:11.061Z,14.90
2023-04-18T07:24:39.175Z,15.47
2023-04-18T07:27:06.283Z,18.03
2023-04-18T07:29:32.942Z,14.77
2023-04-18T07:31:59.286Z,15.37
2023-04-18T07:34:29.673Z,16.90
2023-04-18T07:36:59.540Z,16.07
2023-04-18T07:39:25.900Z,15.13
2023-04-18T07:41:52.213Z,15.03
2023-04-18T07:44:18.576Z,15.60
2023-04-18T07:46:45.004Z,16.73
2023-04-18T07:49:11.699Z,16.00
2023-04-18T07:51:38.235Z,15.63
2023-04-18T07:54:04.598Z,15.57
2023-04-18T07:56:30.968Z,15.27
2023-04-18T07:58:57.304Z,15.83
2023-04-18T08:01:24.686Z,16.30
2023-04-18T08:03:53.146Z,16.20
2023-04-18T08:06:19.663Z,15.13
2023-04-18T08:08:46.265Z,14.90
2023-04-18T08:11:12.894Z,16.47
2023-04-18T08:13:39.241Z,15.70
2023-04-18T08:16:05.946Z,16.60
2023-04-18T08:18:33.345Z,15.63
2023-04-18T08:21:00.122Z,17.17
2023-04-18T08:23:26.477Z,16.63
2023-04-18T08:25:52.841Z,16.40
2023-04-18T08:28:19.172Z,17.40
2023-04-18T08:30:48.971Z,16.07
2023-04-18T08:33:16.082Z,16.00
2023-04-18T08:35:42.939Z,16.30
2023-04-18T08:38:09.505Z,17.00
2023-04-18T08:40:37.409Z,16.87
2023-04-18T08:43:09.206Z,16.57
2023-04-18T08:45:36.709Z,16.90
2023-04-18T08:48:03.662Z,16.33
2023-04-18T08:50:30.418Z,16.63
2023-04-18T08:52:58.370Z,17.43
2023-04-18T08:55:25.083Z,17.13
2023-04-18T08:57:54.980Z,17.17
2023-04-18T09:00:22.563Z,16.30
2023-04-18T09:02:49.464Z,16.00
2023-04-18T09:05:19.399Z,16.13
2023-04-18T09:07:49.615Z,17.27
2023-04-18T09:10:30.953Z,16.10
2023-04-18T09:12:58.545Z,15.87
2023-04-18T09:15:27.183Z,16.73
2023-04-18T09:17:58.182Z,18.20
2023-04-18T09:20:44.492Z,16.63
2023-04-18T09:23:16.161Z,16.73
2023-04-18T09:25:46.283Z,16.50
2023-04-18T09:28:26.775Z,16.30
2023-04-18T09:30:54.256Z,16.67
2023-04-18T09:33:34.241Z,17.70
2023-04-18T09:36:20.244Z,16.93
2023-04-18T09:38:47.932Z,18.37
2023-04-18T09:41:21.259Z,17.47
2023-04-18T09:43:48.048Z,18.80
2023-04-18T09:46:17.317Z,16.00
2023-04-18T09:48:43.662Z,16.00
2023-04-18T09:51:13.803Z,17.30
2023-04-18T09:53:44.830Z,17.07
2023-04-18T09:56:28.017Z,16.20
2023-04-18T09:59:07.055Z,18.20
2023-04-18T10:01:34.528Z,17.70
2023-04-18T10:04:06.542Z,17.87
2023-04-18T10:06:39.555Z,18.27
2023-04-18T10:09:09.172Z,17.40
2023-04-18T10:11:36.336Z,17.57
2023-04-18T10:14:07.666Z,17.93
2023-04-18T10:16:36.274Z,18.13
2023-04-18T10:19:22.820Z,18.90
2023-04-18T10:21:53.715Z,17.77
2023-04-18T10:24:46.869Z,17.80
2023-04-18T10:27:13.273Z,17.27
2023-04-18T10:29:50.501Z,17.50
2023-04-18T10:32:19.610Z,18.27
2023-04-18T10:34:47.140Z,15.90
2023-04-18T10:37:13.560Z,18.27
2023-04-18T10:40:02.851Z,16.70
2023-04-18T10:42:47.580Z,17.17
2023-04-18T10:45:24.484Z,15.57
2023-04-18T10:47:51.205Z,16.20
2023-04-18T10:50:17.627Z,14.97
2023-04-18T10:52:44.727Z,15.97
2023-04-18T10:55:31.034Z,15.40
2023-04-18T10:57:58.625Z,15.53
2023-04-18T11:00:25.916Z,16.60
2023-04-18T11:02:56.214Z,15.33
2023-04-18T11:05:25.168Z,14.23
2023-04-18T11:07:51.602Z,15.50
2023-04-18T11:10:23.603Z,15.87
2023-04-18T11:12:50.395Z,16.30
2023-04-18T11:15:22.045Z,15.77
2023-04-18T11:17:57.650Z,17.47
2023-04-18T11:20:24.650Z,13.93
2023-04-18T11:22:56.859Z,14.27
2023-04-18T11:25:34.339Z,14.23
2023-04-18T11:28:02.370Z,14.23
2023-04-18T11:30:36.688Z,12.73
2023-04-18T11:33:08.186Z,12.17
2023-04-18T11:35:42.528Z,13.10
2023-04-18T11:38:11.171Z,12.50
2023-04-18T11:40:37.848Z,12.13
2023-04-18T11:43:07.263Z,12.73
2023-04-18T11:45:33.681Z,11.00
2023-04-18T11:48:01.072Z,11.47
2023-04-18T11:50:27.539Z,12.50
2023-04-18T11:52:55.450Z,11.80
2023-04-18T11:55:25.108Z,11.40
2023-04-18T11:57:56.721Z,10.30
2023-04-18T12:00:38.375Z,10.20
2023-04-18T12:03:15.800Z,10.70
2023-04-18T12:05:42.733Z,9.17
2023-04-18T12:08:11.687Z,9.47
2023-04-18T12:10:44.731Z,8.67
2023-04-18T12:13:11.265Z,9.97
2023-04-18T12:15:40.428Z,9.60
2023-04-18T12:18:09.830Z,8.60
2023-04-18T12:20:45.742Z,7.13
2023-04-18T12:23:37.323Z,8.27
2023-04-18T12:26:14.414Z,8.60
2023-04-18T12:28:44.754Z,8.20
2023-04-18T12:31:11.361Z,8.20
2023-04-18T12:33:37.684Z,8.10
2023-04-18T12:36:05.397Z,8.20
2023-04-18T12:38:31.815Z,7.40
2023-04-18T12:40:58.176Z,8.20
2023-04-18T12:43:25.506Z,7.70
2023-04-18T12:45:52.056Z,8.60
2023-04-18T12:48:18.383Z,8.90
2023-04-18T12:50:44.684Z,8.07
2023-04-18T12:53:11.009Z,7.10
2023-04-18T12:55:38.042Z,8.90
2023-04-18T12:58:04.384Z,7.20
2023-04-18T13:00:32.295Z,7.00
2023-04-18T13:02:58.945Z,7.10
2023-04-18T13:05:29.915Z,7.53
2023-04-18T13:08:15.365Z,6.87
2023-04-18T13:10:44.349Z,7.50
2023-04-18T13:13:10.829Z,7.80
2023-04-18T13:15:37.330Z,6.80
2023-04-18T13:18:06.045Z,6.70
2023-04-18T13:20:33.320Z,7.20
2023-04-18T13:22:59.977Z,7.93
2023-04-18T13:25:26.523Z,7.03
2023-04-18T13:27:53.376Z,6.90
2023-04-18T13:30:19.924Z,7.10
2023-04-18T13:32:46.941Z,6.90
2023-04-18T13:35:13.648Z,5.67
2023-04-18T13:37:40.102Z,5.80
2023-04-18T13:40:07.078Z,6.30
2023-04-18T13:42:35.350Z,6.03
2023-04-18T13:45:01.781Z,5.67
2023-04-18T13:47:29.447Z,6.00
2023-04-18T13:49:57.515Z,5.80
2023-04-18T13:52:23.929Z,5.80
2023-04-18T13:54:50.444Z,5.57
2023-04-18T13:57:16.811Z,6.40
2023-04-18T13:59:43.232Z,6.20
2023-04-18T14:02:10.097Z,6.17
2023-04-18T14:04:36.979Z,6.83
2023-04-18T14:07:03.865Z,6.30
2023-04-18T14:09:30.215Z,7.27
2023-04-18T14:11:58.043Z,7.37
2023-04-18T14:14:24.465Z,7.43
2023-04-18T14:16:50.847Z,7.67
2023-04-18T14:19:17.817Z,6.90
2023-04-18T14:21:44.155Z,9.13
2023-04-18T14:24:10.528Z,7.73
2023-04-18T14:26:36.863Z,8.00
2023-04-18T14:29:04.987Z,8.50
2023-04-18T14:31:31.370Z,8.10
2023-04-18T14:33:57.720Z,8.47
2023-04-18T14:36:24.151Z,8.47
2023-04-18T14:38:50.489Z,8.10
2023-04-18T14:41:16.844Z,7.70
2023-04-18T14:43:43.244Z,8.27
2023-04-18T14:46:13.839Z,8.00
2023-04-18T14:48:40.267Z,7.80
2023-04-18T14:51:06.943Z,7.30
2023-04-18T14:53:33.475Z,7.90
2023-04-18T14:55:59.789Z,8.60
2023-04-18T14:58:26.117Z,7.10
2023-04-18T15:00:52.576Z,7.67
2023-04-18T15:03:19.021Z,8.20
2023-04-18T15:05:49.028Z,7.60
2023-04-18T15:08:16.129Z,7.63
2023-04-18T15:10:42.826Z,7.37
2023-04-18T15:13:09.662Z,7.70
2023-04-18T15:15:37.572Z,7.57
2023-04-18T15:18:04.482Z,7.47
2023-04-18T15:20:30.915Z,7.50
2023-04-18T15:22:57.395Z,7.40
2023-04-18T15:25:23.838Z,7.00
2023-04-18T15:27:50.192Z,7.40
2023-04-18T15:30:16.554Z,6.57
2023-04-18T15:32:43.977Z,6.33
2023-04-18T15:35:11.659Z,6.90
2023-04-18T15:37:38.107Z,7.17
2023-04-18T15:40:07.114Z,7.10
2023-04-18T15:42:33.546Z,7.07
2023-04-18T15:44:59.860Z,6.60
2023-04-18T15:47:27.113Z,7.10
2023-04-18T15:49:53.630Z,6.27
2023-04-18T15:52:20.037Z,6.13
2023-04-18T15:54:46.359Z,6.43
2023-04-18T15:57:12.709Z,6.17
2023-04-18T15:59:39.082Z,5.10
2023-04-18T16:02:06.734Z,6.50
2023-04-18T16:04:33.293Z,5.50
2023-04-18T16:07:00.205Z,6.57
2023-04-18T16:09:26.926Z,6.20
2023-04-18T16:11:53.384Z,6.90
2023-04-18T16:14:19.737Z,5.87
2023-04-18T16:16:46.144Z,6.30
2023-04-18T16:19:12.470Z,6.50
2023-04-18T16:21:38.771Z,6.10
2023-04-18T16:24:05.591Z,6.90
2023-04-18T16:26:31.934Z,6.90
2023-04-18T16:28:58.287Z,6.40
2023-04-18T16:31:24.646Z,6.33
2023-04-18T16:33:52.541Z,5.83
2023-04-18T16:36:19.074Z,6.07
2023-04-18T16:38:45.621Z,5.93
2023-04-18T16:41:11.952Z,5.90
2023-04-18T16:43:38.647Z,5.10
2023-04-18T16:46:05.517Z,6.80
2023-04-18T16:48:32.012Z,6.27
2023-04-18T16:50:58.418Z,6.20
2023-04-18T16:53:25.374Z,7.60
2023-04-18T16:55:52.993Z,8.00
2023-04-18T16:58:19.881Z,6.60
2023-04-18T17:00:46.254Z,5.50
2023-04-18T17:03:12.650Z,5.80
2023-04-18T17:05:39.323Z,6.30
2023-04-18T17:08:06.669Z,5.10
2023-04-18T17:10:33.825Z,5.23
2023-04-18T17:13:02.720Z,5.73
2023-04-18T17:15:29.270Z,5.97
2023-04-18T17:18:00.243Z,5.20
2023-04-18T17:20:27.928Z,5.00
2023-04-18T17:22:54.770Z,6.10
2023-04-18T17:25:21.450Z,5.60
2023-04-18T17:27:47.841Z,5.20
2023-04-18T17:30:14.275Z,5.53
2023-04-18T17:32:45.564Z,5.43
2023-04-18T17:35:15.139Z,5.97
2023-04-18T17:37:45.007Z,5.87
2023-04-18T17:40:11.906Z,8.13
2023-04-18T17:42:38.488Z,6.80
2023-04-18T17:45:07.423Z,6.63
2023-04-18T17:47:34.697Z,5.90
2023-04-18T17:50:01.090Z,6.87
2023-04-18T17:52:28.507Z,5.87
2023-04-18T17:54:56.286Z,6.20
2023-04-18T17:57:23.353Z,6.60
2023-04-18T17:59:49.697Z,6.60
2023-04-18T18:02:16.474Z,6.33
2023-04-18T18:04:43.182Z,6.80
2023-04-18T18:07:09.822Z,7.00
2023-04-18T18:09:36.378Z,7.00
2023-04-18T18:12:03.334Z,6.80
2023-04-18T18:14:29.676Z,5.97
2023-04-18T18:16:56.165Z,6.77
2023-04-18T18:19:22.603Z,6.17
2023-04-18T18:21:48.957Z,6.10
2023-04-18T18:24:15.294Z,7.10
2023-04-18T18:26:41.769Z,6.57
2023-04-18T18:29:11.428Z,6.67
2023-04-18T18:31:38.652Z,6.63
2023-04-18T18:34:05.684Z,6.60
2023-04-18T18:36:32.134Z,7.10
2023-04-18T18:38:58.492Z,6.40
2023-04-18T18:41:24.895Z,6.67
2023-04-18T18:43:51.394Z,7.67
2023-04-18T18:46:18.266Z,7.30
2023-04-18T18:48:44.788Z,7.40
2023-04-18T18:51:11.554Z,7.20
2023-04-18T18:53:40.365Z,6.60
2023-04-18T18:56:08.570Z,7.27
2023-04-18T18:58:35.577Z,8.13
2023-04-18T19:01:03.175Z,7.60
2023-04-18T19:03:29.801Z,7.80
2023-04-18T19:05:56.811Z,7.57
2023-04-18T19:08:23.236Z,7.00
2023-04-18T19:10:50.476Z,8.80
2023-04-18T19:13:18.697Z,7.10
2023-04-18T19:15:45.102Z,7.20
2023-04-18T19:18:12.321Z,6.80
2023-04-18T19:20:40.258Z,7.33
2023-04-18T19:23:06.673Z,7.20
2023-04-18T19:25:33.085Z,6.80
2023-04-18T19:27:59.420Z,6.43
2023-04-18T19:30:25.784Z,6.87
2023-04-18T19:32:52.218Z,6.97
2023-04-18T19:35:18.600Z,6.93
2023-04-18T19:37:44.931Z,7.03
2023-04-18T19:40:11.665Z,7.10
2023-04-18T19:42:38.011Z,6.67
2023-04-18T19:45:05.803Z,6.10
2023-04-18T19:47:33.816Z,6.90
2023-04-18T19:50:01.149Z,7.20
2023-04-18T19:52:27.571Z,6.87
2023-04-18T19:54:54.558Z,6.87
2023-04-18T19:57:20.886Z,7.53
2023-04-18T19:59:47.213Z,7.53
2023-04-18T20:02:13.580Z,6.63
2023-04-18T20:04:41.731Z,8.53
2023-04-18T20:07:08.192Z,7.93
2023-04-18T20:09:34.566Z,6.47
2023-04-18T20:12:01.896Z,6.60
2023-04-18T20:14:28.838Z,7.90
2023-04-18T20:16:56.147Z,8.00
2023-04-18T20:19:24.436Z,6.90
2023-04-18T20:21:51.121Z,7.07
2023-04-18T20:24:17.860Z,7.20
2023-04-18T20:26:44.227Z,6.47
2023-04-18T20:29:11.121Z,8.00
2023-04-18T20:31:41.968Z,7.07
2023-04-18T20:34:09.567Z,6.50
2023-04-18T20:36:41.260Z,6.40
2023-04-18T20:39:12.900Z,7.00
2023-04-18T20:41:49.082Z,7.17
2023-04-18T20:44:16.296Z,7.07
2023-04-18T20:46:42.636Z,7.50
2023-04-18T20:49:09.215Z,6.73
2023-04-18T20:51:36.968Z,6.53
2023-04-18T20:54:04.494Z,6.97
2023-04-18T20:56:31.870Z,6.97
2023-04-18T20:58:58.185Z,6.87
2023-04-18T21:01:24.585Z,7.93
2023-04-18T21:03:51.109Z,7.10
2023-04-18T21:06:19.028Z,7.10
2023-04-18T21:08:45.691Z,6.80
2023-04-18T21:11:12.062Z,7.47
2023-04-18T21:13:38.406Z,7.20
2023-04-18T21:16:07.585Z,7.40
2023-04-18T21:18:34.063Z,7.83
2023-04-18T21:21:00.809Z,7.20
2023-04-18T21:23:27.296Z,6.50
2023-04-18T21:25:53.745Z,7.47
2023-04-18T21:28:20.346Z,7.27
2023-04-18T21:30:46.858Z,6.90
2023-04-18T21:33:13.829Z,6.63
2023-04-18T21:35:40.216Z,6.90
2023-04-18T21:38:06.566Z,7.67
2023-04-18T21:40:33.293Z,7.03
2023-04-18T21:42:59.683Z,6.70
2023-04-18T21:45:26.225Z,6.90
2023-04-18T21:47:52.778Z,6.70
2023-04-18T21:50:19.341Z,7.20
2023-04-18T21:52:45.691Z,6.90
2023-04-18T21:55:12.044Z,7.80
2023-04-18T21:57:38.404Z,8.00
2023-04-18T22:00:07.819Z,7.60
2023-04-18T22:02:36.401Z,7.87
2023-04-18T22:05:02.936Z,7.90
2023-04-18T22:07:29.463Z,9.03
2023-04-18T22:09:58.380Z,8.83
2023-04-18T22:12:26.193Z,8.20
2023-04-18T22:14:52.973Z,9.50
2023-04-18T22:17:20.782Z,8.43
2023-04-18T22:19:49.668Z,8.83
2023-04-18T22:22:16.302Z,8.70
2023-04-18T22:24:42.836Z,8.60
2023-04-18T22:27:09.940Z,8.90
2023-04-18T22:29:36.428Z,9.93
2023-04-18T22:32:02.838Z,8.70
2023-04-18T22:34:29.153Z,8.67
2023-04-18T22:36:55.872Z,8.90
2023-04-18T22:39:22.284Z,9.37
2023-04-18T22:41:48.627Z,8.67
2023-04-18T22:44:15.277Z,10.97
2023-04-18T22:46:42.554Z,9.97
2023-04-18T22:49:08.954Z,8.93
2023-04-18T22:51:35.337Z,9.70
2023-04-18T22:54:01.652Z,9.90
2023-04-18T22:56:27.968Z,10.53
2023-04-18T22:58:54.311Z,9.00
2023-04-18T23:01:20.928Z,9.30
2023-04-18T23:03:47.434Z,9.90
2023-04-18T23:06:13.967Z,9.37
2023-04-18T23:08:40.338Z,10.20
2023-04-18T23:11:06.682Z,9.53
2023-04-18T23:13:33.036Z,10.23
2023-04-18T23:15:59.359Z,10.63
2023-04-18T23:18:29.690Z,10.20
2023-04-18T23:20:56.058Z,8.93
2023-04-18T23:23:22.539Z,9.80
2023-04-18T23:25:48.889Z,10.07
2023-04-18T23:28:16.866Z,9.03
2023-04-18T23:30:43.698Z,9.30
2023-04-18T23:33:10.101Z,8.97
2023-04-18T23:35:36.516Z,9.10
2023-04-18T23:38:02.837Z,10.17
2023-04-18T23:40:29.243Z,9.57
2023-04-18T23:42:55.560Z,11.17
2023-04-18T23:45:24.182Z,9.73
2023-04-18T23:47:50.725Z,9.13
2023-04-18T23:50:17.391Z,9.83
2023-04-18T23:52:43.709Z,9.50
2023-04-18T23:55:10.253Z,9.50
2023-04-18T23:57:36.653Z,9.70
